sensor_id;sensor_type;location;lat;lon;timestamp;P1;durP1;ratioP1;P2;durP2;ratioP2
17586;SDS011;8912;52.336;17.172;2022-11-12T00:00:52;19.53;;;11.80;;
17586;SDS011;8912;52.336;17.172;2022-11-12T00:03:41;22.53;;;13.30;;
17586;SDS011;8912;52.336;17.172;2022-11-12T00:06:28;26.60;;;14.33;;
17586;SDS011;8912;52.336;17.172;2022-11-12T00:09:15;38.67;;;16.57;;
17586;SDS011;8912;52.336;17.172;2022-11-12T00:12:02;30.23;;;16.63;;
17586;SDS011;8912;52.336;17.172;2022-11-12T00:14:49;28.47;;;15.53;;
17586;SDS011;8912;52.336;17.172;2022-11-12T00:17:37;23.00;;;13.67;;
17586;SDS011;8912;52.336;17.172;2022-11-12T00:20:26;23.27;;;12.57;;
17586;SDS011;8912;52.336;17.172;2022-11-12T00:23:13;20.47;;;11.77;;
17586;SDS011;8912;52.336;17.172;2022-11-12T00:26:00;17.87;;;11.17;;
17586;SDS011;8912;52.336;17.172;2022-11-12T00:28:48;15.53;;;11.07;;
17586;SDS011;8912;52.336;17.172;2022-11-12T00:31:34;16.17;;;10.77;;
17586;SDS011;8912;52.336;17.172;2022-11-12T00:34:21;16.43;;;10.70;;
17586;SDS011;8912;52.336;17.172;2022-11-12T00:37:10;19.53;;;11.30;;
17586;SDS011;8912;52.336;17.172;2022-11-12T00:39:57;14.47;;;10.33;;
17586;SDS011;8912;52.336;17.172;2022-11-12T00:42:43;14.73;;;9.87;;
17586;SDS011;8912;52.336;17.172;2022-11-12T00:45:30;19.10;;;11.23;;
17586;SDS011;8912;52.336;17.172;2022-11-12T00:48:17;20.27;;;10.90;;
17586;SDS011;8912;52.336;17.172;2022-11-12T00:51:04;16.07;;;9.77;;
17586;SDS011;8912;52.336;17.172;2022-11-12T00:53:53;18.67;;;10.73;;
17586;SDS011;8912;52.336;17.172;2022-11-12T00:56:40;15.07;;;10.13;;
17586;SDS011;8912;52.336;17.172;2022-11-12T00:59:27;18.73;;;10.03;;
17586;SDS011;8912;52.336;17.172;2022-11-12T01:02:14;19.40;;;10.37;;
17586;SDS011;8912;52.336;17.172;2022-11-12T01:05:01;17.33;;;10.43;;
17586;SDS011;8912;52.336;17.172;2022-11-12T01:07:48;16.70;;;10.33;;
17586;SDS011;8912;52.336;17.172;2022-11-12T01:10:41;16.30;;;10.20;;
17586;SDS011;8912;52.336;17.172;2022-11-12T01:13:28;16.50;;;10.87;;
17586;SDS011;8912;52.336;17.172;2022-11-12T01:16:16;20.60;;;11.60;;
17586;SDS011;8912;52.336;17.172;2022-11-12T01:19:07;19.30;;;10.80;;
17586;SDS011;8912;52.336;17.172;2022-11-12T01:21:56;17.10;;;11.90;;
17586;SDS011;8912;52.336;17.172;2022-11-12T01:24:43;18.97;;;11.30;;
17586;SDS011;8912;52.336;17.172;2022-11-12T01:27:31;16.60;;;11.03;;
17586;SDS011;8912;52.336;17.172;2022-11-12T01:30:19;21.27;;;12.67;;
17586;SDS011;8912;52.336;17.172;2022-11-12T01:33:06;24.13;;;14.53;;
17586;SDS011;8912;52.336;17.172;2022-11-12T01:35:57;30.17;;;16.23;;
17586;SDS011;8912;52.336;17.172;2022-11-12T01:38:44;26.80;;;15.37;;
17586;SDS011;8912;52.336;17.172;2022-11-12T01:41:33;24.77;;;14.10;;
17586;SDS011;8912;52.336;17.172;2022-11-12T01:44:23;30.17;;;16.53;;
17586;SDS011;8912;52.336;17.172;2022-11-12T01:47:16;20.33;;;13.80;;
17586;SDS011;8912;52.336;17.172;2022-11-12T01:50:09;27.20;;;14.23;;
17586;SDS011;8912;52.336;17.172;2022-11-12T01:53:02;20.23;;;12.03;;
17586;SDS011;8912;52.336;17.172;2022-11-12T01:55:53;19.53;;;12.40;;
17586;SDS011;8912;52.336;17.172;2022-11-12T01:58:41;22.53;;;12.17;;
17586;SDS011;8912;52.336;17.172;2022-11-12T02:01:33;18.33;;;11.83;;
17586;SDS011;8912;52.336;17.172;2022-11-12T02:04:21;20.37;;;12.30;;
17586;SDS011;8912;52.336;17.172;2022-11-12T02:07:09;18.57;;;11.83;;
17586;SDS011;8912;52.336;17.172;2022-11-12T02:09:57;24.80;;;13.20;;
17586;SDS011;8912;52.336;17.172;2022-11-12T02:12:46;24.23;;;14.27;;
17586;SDS011;8912;52.336;17.172;2022-11-12T02:15:52;20.97;;;13.27;;
17586;SDS011;8912;52.336;17.172;2022-11-12T02:18:40;21.93;;;13.77;;
17586;SDS011;8912;52.336;17.172;2022-11-12T02:21:29;22.37;;;14.20;;
17586;SDS011;8912;52.336;17.172;2022-11-12T02:24:33;22.87;;;15.07;;
17586;SDS011;8912;52.336;17.172;2022-11-12T02:27:21;29.10;;;14.23;;
17586;SDS011;8912;52.336;17.172;2022-11-12T02:30:09;20.50;;;12.27;;
17586;SDS011;8912;52.336;17.172;2022-11-12T02:32:57;18.33;;;11.87;;
17586;SDS011;8912;52.336;17.172;2022-11-12T02:35:44;19.33;;;11.73;;
17586;SDS011;8912;52.336;17.172;2022-11-12T02:38:32;14.70;;;12.07;;
17586;SDS011;8912;52.336;17.172;2022-11-12T02:41:19;16.37;;;11.03;;
17586;SDS011;8912;52.336;17.172;2022-11-12T02:44:06;16.83;;;10.80;;
17586;SDS011;8912;52.336;17.172;2022-11-12T02:46:53;18.07;;;11.57;;
17586;SDS011;8912;52.336;17.172;2022-11-12T02:49:40;20.77;;;12.43;;
17586;SDS011;8912;52.336;17.172;2022-11-12T02:52:28;20.27;;;12.43;;
17586;SDS011;8912;52.336;17.172;2022-11-12T02:55:18;23.60;;;14.50;;
17586;SDS011;8912;52.336;17.172;2022-11-12T02:58:05;28.40;;;16.37;;
17586;SDS011;8912;52.336;17.172;2022-11-12T03:00:51;26.00;;;14.97;;
17586;SDS011;8912;52.336;17.172;2022-11-12T03:03:39;23.37;;;14.37;;
17586;SDS011;8912;52.336;17.172;2022-11-12T03:06:26;23.00;;;14.17;;
17586;SDS011;8912;52.336;17.172;2022-11-12T03:09:13;21.17;;;12.93;;
17586;SDS011;8912;52.336;17.172;2022-11-12T03:12:01;20.27;;;12.53;;
17586;SDS011;8912;52.336;17.172;2022-11-12T03:14:48;21.17;;;13.17;;
17586;SDS011;8912;52.336;17.172;2022-11-12T03:17:35;18.33;;;12.87;;
17586;SDS011;8912;52.336;17.172;2022-11-12T03:20:22;18.77;;;12.13;;
17586;SDS011;8912;52.336;17.172;2022-11-12T03:23:10;24.57;;;13.20;;
17586;SDS011;8912;52.336;17.172;2022-11-12T03:25:57;22.53;;;12.83;;
17586;SDS011;8912;52.336;17.172;2022-11-12T03:28:48;17.90;;;12.63;;
17586;SDS011;8912;52.336;17.172;2022-11-12T03:31:36;17.70;;;11.73;;
17586;SDS011;8912;52.336;17.172;2022-11-12T03:34:24;18.57;;;11.70;;
17586;SDS011;8912;52.336;17.172;2022-11-12T03:37:11;20.80;;;12.67;;
17586;SDS011;8912;52.336;17.172;2022-11-12T03:39:58;17.87;;;11.67;;
17586;SDS011;8912;52.336;17.172;2022-11-12T03:42:45;17.20;;;12.33;;
17586;SDS011;8912;52.336;17.172;2022-11-12T03:45:34;17.37;;;12.10;;
17586;SDS011;8912;52.336;17.172;2022-11-12T03:48:21;18.83;;;11.47;;
17586;SDS011;8912;52.336;17.172;2022-11-12T03:51:09;19.77;;;11.97;;
17586;SDS011;8912;52.336;17.172;2022-11-12T03:54:00;22.13;;;12.77;;
17586;SDS011;8912;52.336;17.172;2022-11-12T03:56:47;20.07;;;11.70;;
17586;SDS011;8912;52.336;17.172;2022-11-12T03:59:34;19.63;;;11.47;;
17586;SDS011;8912;52.336;17.172;2022-11-12T04:02:22;15.80;;;11.07;;
17586;SDS011;8912;52.336;17.172;2022-11-12T04:05:10;17.27;;;10.33;;
17586;SDS011;8912;52.336;17.172;2022-11-12T04:08:17;17.27;;;10.40;;
17586;SDS011;8912;52.336;17.172;2022-11-12T04:11:23;20.10;;;10.97;;
17586;SDS011;8912;52.336;17.172;2022-11-12T04:14:10;15.73;;;10.10;;
17586;SDS011;8912;52.336;17.172;2022-11-12T04:16:57;18.30;;;9.90;;
17586;SDS011;8912;52.336;17.172;2022-11-12T04:20:03;19.00;;;10.80;;
17586;SDS011;8912;52.336;17.172;2022-11-12T04:23:08;15.77;;;9.90;;
17586;SDS011;8912;52.336;17.172;2022-11-12T04:25:55;17.13;;;9.70;;
17586;SDS011;8912;52.336;17.172;2022-11-12T04:29:00;18.60;;;11.03;;
17586;SDS011;8912;52.336;17.172;2022-11-12T04:32:04;13.57;;;9.83;;
17586;SDS011;8912;52.336;17.172;2022-11-12T04:34:51;15.40;;;10.03;;
17586;SDS011;8912;52.336;17.172;2022-11-12T04:37:40;18.07;;;9.73;;
17586;SDS011;8912;52.336;17.172;2022-11-12T04:40:30;16.83;;;10.50;;
17586;SDS011;8912;52.336;17.172;2022-11-12T04:43:35;16.63;;;10.70;;
17586;SDS011;8912;52.336;17.172;2022-11-12T04:46:40;15.57;;;9.50;;
17586;SDS011;8912;52.336;17.172;2022-11-12T04:49:27;17.40;;;10.10;;
17586;SDS011;8912;52.336;17.172;2022-11-12T04:52:14;17.67;;;10.43;;
17586;SDS011;8912;52.336;17.172;2022-11-12T04:55:03;17.00;;;10.47;;
17586;SDS011;8912;52.336;17.172;2022-11-12T04:57:51;15.50;;;10.33;;
17586;SDS011;8912;52.336;17.172;2022-11-12T05:00:45;16.90;;;11.13;;
17586;SDS011;8912;52.336;17.172;2022-11-12T05:03:32;19.33;;;9.83;;
17586;SDS011;8912;52.336;17.172;2022-11-12T05:06:20;17.43;;;9.90;;
17586;SDS011;8912;52.336;17.172;2022-11-12T05:09:25;14.23;;;9.77;;
17586;SDS011;8912;52.336;17.172;2022-11-12T05:12:15;14.40;;;9.10;;
17586;SDS011;8912;52.336;17.172;2022-11-12T05:15:02;14.47;;;9.93;;
17586;SDS011;8912;52.336;17.172;2022-11-12T05:17:49;17.23;;;9.43;;
17586;SDS011;8912;52.336;17.172;2022-11-12T05:20:37;15.73;;;9.57;;
17586;SDS011;8912;52.336;17.172;2022-11-12T05:23:23;14.60;;;10.07;;
17586;SDS011;8912;52.336;17.172;2022-11-12T05:26:11;16.23;;;9.37;;
17586;SDS011;8912;52.336;17.172;2022-11-12T05:28:59;14.33;;;10.30;;
17586;SDS011;8912;52.336;17.172;2022-11-12T05:31:52;17.30;;;9.37;;
17586;SDS011;8912;52.336;17.172;2022-11-12T05:34:40;13.30;;;8.77;;
17586;SDS011;8912;52.336;17.172;2022-11-12T05:37:27;12.70;;;9.07;;
17586;SDS011;8912;52.336;17.172;2022-11-12T05:40:14;13.23;;;9.67;;
17586;SDS011;8912;52.336;17.172;2022-11-12T05:43:01;12.27;;;8.40;;
17586;SDS011;8912;52.336;17.172;2022-11-12T05:45:49;12.77;;;9.17;;
17586;SDS011;8912;52.336;17.172;2022-11-12T05:48:36;13.30;;;8.93;;
17586;SDS011;8912;52.336;17.172;2022-11-12T05:51:23;11.90;;;8.77;;
17586;SDS011;8912;52.336;17.172;2022-11-12T05:54:10;10.67;;;8.60;;
17586;SDS011;8912;52.336;17.172;2022-11-12T05:56:57;15.77;;;9.70;;
17586;SDS011;8912;52.336;17.172;2022-11-12T05:59:44;14.47;;;8.90;;
17586;SDS011;8912;52.336;17.172;2022-11-12T06:02:32;11.13;;;8.80;;
17586;SDS011;8912;52.336;17.172;2022-11-12T06:05:19;12.10;;;8.83;;
17586;SDS011;8912;52.336;17.172;2022-11-12T06:08:07;14.03;;;9.27;;
17586;SDS011;8912;52.336;17.172;2022-11-12T06:10:53;15.27;;;10.13;;
17586;SDS011;8912;52.336;17.172;2022-11-12T06:13:41;17.17;;;10.10;;
17586;SDS011;8912;52.336;17.172;2022-11-12T06:16:29;18.03;;;10.93;;
17586;SDS011;8912;52.336;17.172;2022-11-12T06:19:17;13.97;;;9.60;;
17586;SDS011;8912;52.336;17.172;2022-11-12T06:22:04;15.47;;;9.90;;
17586;SDS011;8912;52.336;17.172;2022-11-12T06:24:51;15.40;;;10.60;;
17586;SDS011;8912;52.336;17.172;2022-11-12T06:27:38;17.17;;;10.33;;
17586;SDS011;8912;52.336;17.172;2022-11-12T06:30:26;19.43;;;9.97;;
17586;SDS011;8912;52.336;17.172;2022-11-12T06:33:13;13.77;;;9.80;;
17586;SDS011;8912;52.336;17.172;2022-11-12T06:36:02;14.70;;;10.40;;
17586;SDS011;8912;52.336;17.172;2022-11-12T06:38:51;13.90;;;9.37;;
17586;SDS011;8912;52.336;17.172;2022-11-12T06:41:38;19.03;;;10.60;;
17586;SDS011;8912;52.336;17.172;2022-11-12T06:44:25;18.80;;;10.23;;
17586;SDS011;8912;52.336;17.172;2022-11-12T06:47:12;14.80;;;10.67;;
17586;SDS011;8912;52.336;17.172;2022-11-12T06:49:59;14.17;;;9.97;;
17586;SDS011;8912;52.336;17.172;2022-11-12T06:52:48;16.30;;;10.20;;
17586;SDS011;8912;52.336;17.172;2022-11-12T06:55:36;16.97;;;10.53;;
17586;SDS011;8912;52.336;17.172;2022-11-12T06:58:23;15.37;;;9.83;;
17586;SDS011;8912;52.336;17.172;2022-11-12T07:01:11;16.43;;;10.27;;
17586;SDS011;8912;52.336;17.172;2022-11-12T07:03:59;14.57;;;9.70;;
17586;SDS011;8912;52.336;17.172;2022-11-12T07:06:46;13.90;;;9.90;;
17586;SDS011;8912;52.336;17.172;2022-11-12T07:09:34;15.17;;;9.97;;
17586;SDS011;8912;52.336;17.172;2022-11-12T07:12:22;16.97;;;10.33;;
17586;SDS011;8912;52.336;17.172;2022-11-12T07:15:09;16.03;;;10.60;;
17586;SDS011;8912;52.336;17.172;2022-11-12T07:17:56;15.70;;;9.83;;
17586;SDS011;8912;52.336;17.172;2022-11-12T07:20:43;14.60;;;10.03;;
17586;SDS011;8912;52.336;17.172;2022-11-12T07:23:30;15.00;;;9.47;;
17586;SDS011;8912;52.336;17.172;2022-11-12T07:26:20;14.23;;;10.07;;
17586;SDS011;8912;52.336;17.172;2022-11-12T07:29:09;14.03;;;9.83;;
17586;SDS011;8912;52.336;17.172;2022-11-12T07:32:01;12.63;;;10.10;;
17586;SDS011;8912;52.336;17.172;2022-11-12T07:34:49;16.70;;;9.80;;
17586;SDS011;8912;52.336;17.172;2022-11-12T07:37:36;16.17;;;10.20;;
17586;SDS011;8912;52.336;17.172;2022-11-12T07:40:23;16.40;;;9.93;;
17586;SDS011;8912;52.336;17.172;2022-11-12T07:43:12;16.30;;;10.03;;
17586;SDS011;8912;52.336;17.172;2022-11-12T07:46:00;16.30;;;9.60;;
17586;SDS011;8912;52.336;17.172;2022-11-12T07:48:54;14.53;;;9.67;;
17586;SDS011;8912;52.336;17.172;2022-11-12T07:51:41;15.97;;;8.67;;
17586;SDS011;8912;52.336;17.172;2022-11-12T07:54:29;15.47;;;9.10;;
17586;SDS011;8912;52.336;17.172;2022-11-12T07:57:16;17.60;;;9.27;;
17586;SDS011;8912;52.336;17.172;2022-11-12T08:00:04;13.13;;;8.87;;
17586;SDS011;8912;52.336;17.172;2022-11-12T08:02:52;13.67;;;8.83;;
17586;SDS011;8912;52.336;17.172;2022-11-12T08:05:40;17.50;;;9.30;;
17586;SDS011;8912;52.336;17.172;2022-11-12T08:08:27;14.50;;;8.90;;
17586;SDS011;8912;52.336;17.172;2022-11-12T08:11:14;14.33;;;9.50;;
17586;SDS011;8912;52.336;17.172;2022-11-12T08:14:01;14.73;;;9.50;;
17586;SDS011;8912;52.336;17.172;2022-11-12T08:16:51;16.67;;;8.63;;
17586;SDS011;8912;52.336;17.172;2022-11-12T08:19:39;11.10;;;8.33;;
17586;SDS011;8912;52.336;17.172;2022-11-12T08:22:25;12.73;;;8.70;;
17586;SDS011;8912;52.336;17.172;2022-11-12T08:25:12;13.07;;;8.93;;
17586;SDS011;8912;52.336;17.172;2022-11-12T08:28:00;13.63;;;8.87;;
17586;SDS011;8912;52.336;17.172;2022-11-12T08:30:47;12.97;;;8.00;;
17586;SDS011;8912;52.336;17.172;2022-11-12T08:33:35;13.63;;;8.80;;
17586;SDS011;8912;52.336;17.172;2022-11-12T08:36:22;12.67;;;8.37;;
17586;SDS011;8912;52.336;17.172;2022-11-12T08:39:09;12.57;;;8.70;;
17586;SDS011;8912;52.336;17.172;2022-11-12T08:41:56;14.10;;;8.97;;
17586;SDS011;8912;52.336;17.172;2022-11-12T08:44:43;13.40;;;9.43;;
17586;SDS011;8912;52.336;17.172;2022-11-12T08:47:30;12.60;;;9.53;;
17586;SDS011;8912;52.336;17.172;2022-11-12T08:50:18;15.13;;;8.90;;
17586;SDS011;8912;52.336;17.172;2022-11-12T08:53:06;15.10;;;9.93;;
17586;SDS011;8912;52.336;17.172;2022-11-12T08:55:54;15.10;;;9.60;;
17586;SDS011;8912;52.336;17.172;2022-11-12T08:58:42;16.70;;;10.00;;
17586;SDS011;8912;52.336;17.172;2022-11-12T09:01:29;15.43;;;10.40;;
17586;SDS011;8912;52.336;17.172;2022-11-12T09:04:16;15.57;;;10.63;;
17586;SDS011;8912;52.336;17.172;2022-11-12T09:07:05;16.57;;;10.47;;
17586;SDS011;8912;52.336;17.172;2022-11-12T09:10:12;16.43;;;11.10;;
17586;SDS011;8912;52.336;17.172;2022-11-12T09:12:59;14.30;;;11.07;;
17586;SDS011;8912;52.336;17.172;2022-11-12T09:15:46;21.13;;;12.17;;
17586;SDS011;8912;52.336;17.172;2022-11-12T09:18:33;15.30;;;10.33;;
17586;SDS011;8912;52.336;17.172;2022-11-12T09:21:20;16.30;;;11.20;;
17586;SDS011;8912;52.336;17.172;2022-11-12T09:24:10;15.60;;;10.60;;
17586;SDS011;8912;52.336;17.172;2022-11-12T09:26:57;15.27;;;9.77;;
17586;SDS011;8912;52.336;17.172;2022-11-12T09:29:44;14.30;;;9.20;;
17586;SDS011;8912;52.336;17.172;2022-11-12T09:32:31;12.87;;;9.07;;
17586;SDS011;8912;52.336;17.172;2022-11-12T09:35:19;13.73;;;10.47;;
17586;SDS011;8912;52.336;17.172;2022-11-12T09:38:06;14.83;;;10.37;;
17586;SDS011;8912;52.336;17.172;2022-11-12T09:41:02;18.93;;;10.67;;
17586;SDS011;8912;52.336;17.172;2022-11-12T09:44:13;20.60;;;11.90;;
17586;SDS011;8912;52.336;17.172;2022-11-12T09:47:03;20.17;;;10.93;;
17586;SDS011;8912;52.336;17.172;2022-11-12T09:50:00;16.97;;;12.23;;
17586;SDS011;8912;52.336;17.172;2022-11-12T09:52:58;21.87;;;12.60;;
17586;SDS011;8912;52.336;17.172;2022-11-12T09:55:50;14.87;;;11.10;;
17586;SDS011;8912;52.336;17.172;2022-11-12T09:58:38;16.67;;;11.20;;
17586;SDS011;8912;52.336;17.172;2022-11-12T10:01:33;17.67;;;11.67;;
17586;SDS011;8912;52.336;17.172;2022-11-12T10:04:34;16.90;;;11.53;;
17586;SDS011;8912;52.336;17.172;2022-11-12T10:07:35;17.07;;;11.63;;
17586;SDS011;8912;52.336;17.172;2022-11-12T10:10:33;15.63;;;11.33;;
17586;SDS011;8912;52.336;17.172;2022-11-12T10:13:32;20.87;;;12.37;;
17586;SDS011;8912;52.336;17.172;2022-11-12T10:16:36;15.77;;;10.90;;
17586;SDS011;8912;52.336;17.172;2022-11-12T10:19:38;17.33;;;11.27;;
17586;SDS011;8912;52.336;17.172;2022-11-12T10:22:38;17.63;;;11.40;;
17586;SDS011;8912;52.336;17.172;2022-11-12T10:25:32;18.03;;;11.53;;
17586;SDS011;8912;52.336;17.172;2022-11-12T10:28:23;15.97;;;11.93;;
17586;SDS011;8912;52.336;17.172;2022-11-12T10:31:23;17.57;;;12.60;;
17586;SDS011;8912;52.336;17.172;2022-11-12T10:34:13;15.17;;;11.47;;
17586;SDS011;8912;52.336;17.172;2022-11-12T10:37:02;15.40;;;11.77;;
17586;SDS011;8912;52.336;17.172;2022-11-12T10:39:51;18.10;;;10.90;;
17586;SDS011;8912;52.336;17.172;2022-11-12T10:42:54;18.50;;;12.23;;
17586;SDS011;8912;52.336;17.172;2022-11-12T10:45:43;16.67;;;11.50;;
17586;SDS011;8912;52.336;17.172;2022-11-12T10:48:32;24.63;;;11.40;;
17586;SDS011;8912;52.336;17.172;2022-11-12T10:51:24;19.03;;;11.93;;
17586;SDS011;8912;52.336;17.172;2022-11-12T10:54:25;17.40;;;12.00;;
17586;SDS011;8912;52.336;17.172;2022-11-12T10:57:19;18.83;;;11.97;;
17586;SDS011;8912;52.336;17.172;2022-11-12T11:00:14;18.07;;;12.30;;
17586;SDS011;8912;52.336;17.172;2022-11-12T11:03:04;18.53;;;12.13;;
17586;SDS011;8912;52.336;17.172;2022-11-12T11:05:55;18.70;;;12.23;;
17586;SDS011;8912;52.336;17.172;2022-11-12T11:08:46;16.67;;;12.67;;
17586;SDS011;8912;52.336;17.172;2022-11-12T11:11:34;20.60;;;13.67;;
17586;SDS011;8912;52.336;17.172;2022-11-12T11:14:31;17.33;;;13.17;;
17586;SDS011;8912;52.336;17.172;2022-11-12T11:17:19;18.77;;;12.40;;
17586;SDS011;8912;52.336;17.172;2022-11-12T11:20:12;19.63;;;14.27;;
17586;SDS011;8912;52.336;17.172;2022-11-12T11:23:09;21.80;;;13.60;;
17586;SDS011;8912;52.336;17.172;2022-11-12T11:26:06;23.37;;;14.47;;
17586;SDS011;8912;52.336;17.172;2022-11-12T11:29:09;20.20;;;13.83;;
17586;SDS011;8912;52.336;17.172;2022-11-12T11:32:10;21.33;;;14.67;;
17586;SDS011;8912;52.336;17.172;2022-11-12T11:35:13;27.87;;;16.93;;
17586;SDS011;8912;52.336;17.172;2022-11-12T11:38:15;28.77;;;16.53;;
17586;SDS011;8912;52.336;17.172;2022-11-12T11:41:34;21.07;;;14.20;;
17586;SDS011;8912;52.336;17.172;2022-11-12T11:44:31;21.57;;;15.60;;
17586;SDS011;8912;52.336;17.172;2022-11-12T11:47:28;25.70;;;15.60;;
17586;SDS011;8912;52.336;17.172;2022-11-12T11:50:43;22.03;;;14.40;;
17586;SDS011;8912;52.336;17.172;2022-11-12T11:53:46;19.17;;;13.60;;
17586;SDS011;8912;52.336;17.172;2022-11-12T11:56:42;21.57;;;15.47;;
17586;SDS011;8912;52.336;17.172;2022-11-12T11:59:33;17.50;;;13.87;;
17586;SDS011;8912;52.336;17.172;2022-11-12T12:02:44;21.07;;;13.53;;
17586;SDS011;8912;52.336;17.172;2022-11-12T12:05:49;24.33;;;16.50;;
17586;SDS011;8912;52.336;17.172;2022-11-12T12:09:08;21.07;;;14.37;;
17586;SDS011;8912;52.336;17.172;2022-11-12T12:12:10;21.27;;;14.17;;
17586;SDS011;8912;52.336;17.172;2022-11-12T12:15:18;22.80;;;16.57;;
17586;SDS011;8912;52.336;17.172;2022-11-12T12:18:22;19.90;;;14.13;;
17586;SDS011;8912;52.336;17.172;2022-11-12T12:21:16;21.00;;;14.73;;
17586;SDS011;8912;52.336;17.172;2022-11-12T12:24:08;21.87;;;15.73;;
17586;SDS011;8912;52.336;17.172;2022-11-12T12:27:01;19.83;;;13.80;;
17586;SDS011;8912;52.336;17.172;2022-11-12T12:29:55;20.73;;;14.17;;
17586;SDS011;8912;52.336;17.172;2022-11-12T12:32:48;20.97;;;14.77;;
17586;SDS011;8912;52.336;17.172;2022-11-12T12:35:43;22.27;;;15.47;;
17586;SDS011;8912;52.336;17.172;2022-11-12T12:38:39;23.53;;;15.03;;
17586;SDS011;8912;52.336;17.172;2022-11-12T12:41:31;22.37;;;14.77;;
17586;SDS011;8912;52.336;17.172;2022-11-12T12:44:29;23.47;;;16.47;;
17586;SDS011;8912;52.336;17.172;2022-11-12T12:47:40;28.07;;;16.83;;
17586;SDS011;8912;52.336;17.172;2022-11-12T12:50:29;22.53;;;15.37;;
17586;SDS011;8912;52.336;17.172;2022-11-12T12:53:29;24.27;;;15.47;;
17586;SDS011;8912;52.336;17.172;2022-11-12T12:59:31;18.83;;;14.50;;
17586;SDS011;8912;52.336;17.172;2022-11-12T13:02:19;21.20;;;15.97;;
17586;SDS011;8912;52.336;17.172;2022-11-12T13:05:25;24.37;;;15.23;;
17586;SDS011;8912;52.336;17.172;2022-11-12T13:08:17;24.17;;;15.80;;
17586;SDS011;8912;52.336;17.172;2022-11-12T13:11:08;21.97;;;15.93;;
17586;SDS011;8912;52.336;17.172;2022-11-12T13:13:57;20.77;;;15.60;;
17586;SDS011;8912;52.336;17.172;2022-11-12T13:17:43;19.40;;;14.70;;
17586;SDS011;8912;52.336;17.172;2022-11-12T13:20:36;24.50;;;14.87;;
17586;SDS011;8912;52.336;17.172;2022-11-12T13:23:41;20.07;;;14.67;;
17586;SDS011;8912;52.336;17.172;2022-11-12T13:26:54;24.50;;;16.30;;
17586;SDS011;8912;52.336;17.172;2022-11-12T13:29:44;19.70;;;15.47;;
17586;SDS011;8912;52.336;17.172;2022-11-12T13:32:33;23.50;;;15.57;;
17586;SDS011;8912;52.336;17.172;2022-11-12T13:35:29;25.13;;;15.50;;
17586;SDS011;8912;52.336;17.172;2022-11-12T13:38:19;20.30;;;14.23;;
17586;SDS011;8912;52.336;17.172;2022-11-12T13:41:07;21.60;;;15.33;;
17586;SDS011;8912;52.336;17.172;2022-11-12T13:44:02;22.10;;;15.50;;
17586;SDS011;8912;52.336;17.172;2022-11-12T13:46:52;21.53;;;15.93;;
17586;SDS011;8912;52.336;17.172;2022-11-12T13:49:40;21.50;;;15.50;;
17586;SDS011;8912;52.336;17.172;2022-11-12T13:52:29;18.70;;;14.57;;
17586;SDS011;8912;52.336;17.172;2022-11-12T13:55:17;22.53;;;15.43;;
17586;SDS011;8912;52.336;17.172;2022-11-12T13:58:15;21.33;;;15.40;;
17586;SDS011;8912;52.336;17.172;2022-11-12T14:01:11;26.37;;;15.53;;
17586;SDS011;8912;52.336;17.172;2022-11-12T14:04:00;19.97;;;15.43;;
17586;SDS011;8912;52.336;17.172;2022-11-12T14:06:47;23.87;;;16.03;;
17586;SDS011;8912;52.336;17.172;2022-11-12T14:09:49;23.37;;;16.10;;
17586;SDS011;8912;52.336;17.172;2022-11-12T14:13:01;25.37;;;17.67;;
17586;SDS011;8912;52.336;17.172;2022-11-12T14:16:04;22.97;;;16.53;;
17586;SDS011;8912;52.336;17.172;2022-11-12T14:19:16;23.67;;;16.20;;
17586;SDS011;8912;52.336;17.172;2022-11-12T14:22:22;24.97;;;16.17;;
17586;SDS011;8912;52.336;17.172;2022-11-12T14:25:11;21.47;;;15.37;;
17586;SDS011;8912;52.336;17.172;2022-11-12T14:28:03;22.03;;;15.87;;
17586;SDS011;8912;52.336;17.172;2022-11-12T14:30:50;23.60;;;15.57;;
17586;SDS011;8912;52.336;17.172;2022-11-12T14:33:37;23.93;;;15.60;;
17586;SDS011;8912;52.336;17.172;2022-11-12T14:36:26;23.97;;;15.87;;
17586;SDS011;8912;52.336;17.172;2022-11-12T14:39:15;23.73;;;16.83;;
17586;SDS011;8912;52.336;17.172;2022-11-12T14:42:02;26.10;;;17.13;;
17586;SDS011;8912;52.336;17.172;2022-11-12T14:44:49;25.00;;;16.73;;
17586;SDS011;8912;52.336;17.172;2022-11-12T14:47:36;24.40;;;17.27;;
17586;SDS011;8912;52.336;17.172;2022-11-12T14:50:24;25.33;;;18.30;;
17586;SDS011;8912;52.336;17.172;2022-11-12T14:53:20;27.87;;;17.90;;
17586;SDS011;8912;52.336;17.172;2022-11-12T14:56:22;27.60;;;17.77;;
17586;SDS011;8912;52.336;17.172;2022-11-12T14:59:20;31.87;;;19.03;;
17586;SDS011;8912;52.336;17.172;2022-11-12T15:02:08;27.73;;;18.87;;
17586;SDS011;8912;52.336;17.172;2022-11-12T15:05:18;28.10;;;18.73;;
17586;SDS011;8912;52.336;17.172;2022-11-12T15:08:09;26.70;;;17.27;;
17586;SDS011;8912;52.336;17.172;2022-11-12T15:11:01;29.73;;;20.67;;
17586;SDS011;8912;52.336;17.172;2022-11-12T15:14:08;36.67;;;23.90;;
17586;SDS011;8912;52.336;17.172;2022-11-12T15:17:05;40.20;;;26.37;;
17586;SDS011;8912;52.336;17.172;2022-11-12T15:20:10;35.90;;;23.53;;
17586;SDS011;8912;52.336;17.172;2022-11-12T15:23:00;35.60;;;21.80;;
17586;SDS011;8912;52.336;17.172;2022-11-12T15:25:55;35.13;;;23.77;;
17586;SDS011;8912;52.336;17.172;2022-11-12T15:28:58;36.73;;;24.23;;
17586;SDS011;8912;52.336;17.172;2022-11-12T15:31:46;60.83;;;39.90;;
17586;SDS011;8912;52.336;17.172;2022-11-12T15:34:42;60.03;;;38.47;;
17586;SDS011;8912;52.336;17.172;2022-11-12T15:37:32;40.73;;;27.03;;
17586;SDS011;8912;52.336;17.172;2022-11-12T15:40:27;38.73;;;24.83;;
17586;SDS011;8912;52.336;17.172;2022-11-12T15:43:15;50.33;;;28.73;;
17586;SDS011;8912;52.336;17.172;2022-11-12T15:46:09;78.00;;;36.57;;
17586;SDS011;8912;52.336;17.172;2022-11-12T15:48:59;55.53;;;33.37;;
17586;SDS011;8912;52.336;17.172;2022-11-12T15:51:46;50.60;;;30.23;;
17586;SDS011;8912;52.336;17.172;2022-11-12T15:54:33;52.57;;;35.67;;
17586;SDS011;8912;52.336;17.172;2022-11-12T15:57:26;44.67;;;32.63;;
17586;SDS011;8912;52.336;17.172;2022-11-12T16:00:16;44.80;;;32.27;;
17586;SDS011;8912;52.336;17.172;2022-11-12T16:03:10;50.93;;;34.87;;
17586;SDS011;8912;52.336;17.172;2022-11-12T16:05:59;37.40;;;26.00;;
17586;SDS011;8912;52.336;17.172;2022-11-12T16:08:53;36.17;;;23.13;;
17586;SDS011;8912;52.336;17.172;2022-11-12T16:11:40;40.10;;;26.23;;
17586;SDS011;8912;52.336;17.172;2022-11-12T16:14:27;39.03;;;24.40;;
17586;SDS011;8912;52.336;17.172;2022-11-12T16:17:15;41.20;;;29.27;;
17586;SDS011;8912;52.336;17.172;2022-11-12T16:20:07;44.43;;;27.57;;
17586;SDS011;8912;52.336;17.172;2022-11-12T16:22:59;54.23;;;33.77;;
17586;SDS011;8912;52.336;17.172;2022-11-12T16:25:46;57.73;;;36.67;;
17586;SDS011;8912;52.336;17.172;2022-11-12T16:28:34;44.30;;;29.37;;
17586;SDS011;8912;52.336;17.172;2022-11-12T16:31:22;49.63;;;32.23;;
17586;SDS011;8912;52.336;17.172;2022-11-12T16:34:09;46.90;;;30.40;;
17586;SDS011;8912;52.336;17.172;2022-11-12T16:36:58;51.27;;;35.47;;
17586;SDS011;8912;52.336;17.172;2022-11-12T16:39:45;52.80;;;38.27;;
17586;SDS011;8912;52.336;17.172;2022-11-12T16:42:33;46.27;;;34.80;;
17586;SDS011;8912;52.336;17.172;2022-11-12T16:45:21;46.03;;;28.17;;
17586;SDS011;8912;52.336;17.172;2022-11-12T16:48:10;54.07;;;30.77;;